createdAt,value
2022-10-11T00:02:01.485Z,46.92
2022-10-11T00:04:27.972Z,47.06
2022-10-11T00:06:54.824Z,47.05
2022-10-11T00:09:21.353Z,47.01
2022-10-11T00:11:47.844Z,47.08
2022-10-11T00:14:14.506Z,47.00
2022-10-11T00:16:44.322Z,47.01
2022-10-11T00:19:11.649Z,46.86
2022-10-11T00:21:38.218Z,46.95
2022-10-11T00:24:05.513Z,47.05
2022-10-11T00:26:32.477Z,46.92
2022-10-11T00:28:59.023Z,47.01
2022-10-11T00:31:25.587Z,47.00
2022-10-11T00:33:53.740Z,47.01
2022-10-11T00:36:21.224Z,46.96
2022-10-11T00:38:48.196Z,46.99
2022-10-11T00:41:15.999Z,47.00
2022-10-11T00:43:43.806Z,46.91
2022-10-11T00:46:16.045Z,46.81
2022-10-11T00:48:49.425Z,46.76
2022-10-11T00:51:43.044Z,47.00
2022-10-11T00:54:14.864Z,46.83
2022-10-11T00:56:43.571Z,46.95
2022-10-11T00:59:14.394Z,47.05
2022-10-11T01:01:41.028Z,46.88
2022-10-11T01:04:07.594Z,46.95
2022-10-11T01:06:34.682Z,46.98
2022-10-11T01:09:01.236Z,46.79
2022-10-11T01:11:30.256Z,46.88
2022-10-11T01:14:27.730Z,46.93
2022-10-11T01:17:16.243Z,46.77
2022-10-11T01:19:56.604Z,46.94
2022-10-11T01:22:41.489Z,46.91
2022-10-11T01:25:16.848Z,46.92
2022-10-11T01:28:12.103Z,46.82
2022-10-11T01:30:39.073Z,46.88
2022-10-11T01:33:14.915Z,46.95
2022-10-11T01:35:45.205Z,47.05
2022-10-11T01:38:22.404Z,46.87
2022-10-11T01:40:52.955Z,47.02
2022-10-11T01:43:20.678Z,46.96
2022-10-11T01:45:51.663Z,46.90
2022-10-11T01:48:18.713Z,46.91
2022-10-11T01:50:53.002Z,46.89
2022-10-11T01:53:40.056Z,46.94
2022-10-11T01:56:18.858Z,46.74
2022-10-11T01:59:16.282Z,47.00
2022-10-11T02:02:05.115Z,46.93
2022-10-11T02:05:00.879Z,46.92
2022-10-11T02:07:39.324Z,47.22
2022-10-11T02:10:21.171Z,47.11
2022-10-11T02:13:09.277Z,47.02
2022-10-11T02:15:40.730Z,47.06
2022-10-11T02:18:15.958Z,46.96
2022-10-11T02:20:45.352Z,47.15
2022-10-11T02:23:26.567Z,46.89
2022-10-11T02:25:54.434Z,47.17
2022-10-11T02:28:28.241Z,47.11
2022-10-11T02:30:56.588Z,46.92
2022-10-11T02:33:31.370Z,47.22
2022-10-11T02:36:05.695Z,46.64
2022-10-11T02:38:40.080Z,46.91
2022-10-11T02:41:32.890Z,46.87
2022-10-11T02:44:08.192Z,46.85
2022-10-11T02:46:35.623Z,46.95
2022-10-11T02:49:02.420Z,47.09
2022-10-11T02:51:32.598Z,47.01
2022-10-11T02:53:59.196Z,47.12
2022-10-11T02:56:25.931Z,47.15
2022-10-11T02:58:52.454Z,47.17
2022-10-11T03:01:19.017Z,47.03
2022-10-11T03:03:45.611Z,47.03
2022-10-11T03:06:12.293Z,46.99
2022-10-11T03:08:38.856Z,46.93
2022-10-11T03:11:05.411Z,46.96
2022-10-11T03:13:31.964Z,46.94
2022-10-11T03:16:03.273Z,47.03
2022-10-11T03:18:30.959Z,47.07
2022-10-11T03:20:57.649Z,46.99
2022-10-11T03:23:24.146Z,46.98
2022-10-11T03:25:52.024Z,47.07
2022-10-11T03:28:19.005Z,47.26
2022-10-11T03:30:48.458Z,46.99
2022-10-11T03:33:15.263Z,47.13
2022-10-11T03:35:44.760Z,47.08
2022-10-11T03:38:17.280Z,46.98
2022-10-11T03:40:44.246Z,46.76
2022-10-11T03:43:11.098Z,46.92
2022-10-11T03:45:38.056Z,46.89
2022-10-11T03:48:04.948Z,46.94
2022-10-11T03:50:31.449Z,46.94
2022-10-11T03:52:58.030Z,47.05
2022-10-11T03:55:24.672Z,47.04
2022-10-11T03:57:51.139Z,46.94
2022-10-11T04:00:17.765Z,46.93
2022-10-11T04:02:44.379Z,46.86
2022-10-11T04:05:12.589Z,46.95
2022-10-11T04:07:39.653Z,46.85
2022-10-11T04:10:07.122Z,46.94
2022-10-11T04:12:34.422Z,46.94
2022-10-11T04:15:00.978Z,46.92
2022-10-11T04:17:27.499Z,46.81
2022-10-11T04:19:53.976Z,46.79
2022-10-11T04:22:20.516Z,46.82
2022-10-11T04:24:47.042Z,46.97
2022-10-11T04:27:13.487Z,46.71
2022-10-11T04:29:39.972Z,46.87
2022-10-11T04:32:06.568Z,46.86
2022-10-11T04:34:33.112Z,46.92
2022-10-11T04:36:59.673Z,46.93
2022-10-11T04:39:26.221Z,47.23
2022-10-11T04:41:52.810Z,47.08
2022-10-11T04:44:19.335Z,46.90
2022-10-11T04:46:45.847Z,46.95
2022-10-11T04:49:12.357Z,46.84
2022-10-11T04:51:38.976Z,46.91
2022-10-11T04:54:05.592Z,47.10
2022-10-11T04:56:32.155Z,46.93
2022-10-11T04:59:00.931Z,47.09
2022-10-11T05:01:27.427Z,46.96
2022-10-11T05:03:53.949Z,47.23
2022-10-11T05:06:20.463Z,47.04
2022-10-11T05:08:47.038Z,47.26
2022-10-11T05:11:16.151Z,47.16
2022-10-11T05:13:43.590Z,47.18
2022-10-11T05:16:11.805Z,47.26
2022-10-11T05:18:39.529Z,47.04
2022-10-11T05:21:15.344Z,46.94
2022-10-11T05:23:41.775Z,47.14
2022-10-11T05:26:08.676Z,47.04
2022-10-11T05:28:35.991Z,47.02
2022-10-11T05:31:03.132Z,46.78
2022-10-11T05:33:29.666Z,46.83
2022-10-11T05:35:56.239Z,47.01
2022-10-11T05:38:23.015Z,47.05
2022-10-11T05:40:49.842Z,46.98
2022-10-11T05:43:16.354Z,47.05
2022-10-11T05:45:44.964Z,46.93
2022-10-11T05:48:11.672Z,47.04
2022-10-11T05:50:38.991Z,47.31
2022-10-11T05:53:06.426Z,47.35
2022-10-11T05:55:43.322Z,46.97
2022-10-11T05:58:15.167Z,46.97
2022-10-11T06:00:41.749Z,47.00
2022-10-11T06:03:10.979Z,46.94
2022-10-11T06:05:37.857Z,46.99
2022-10-11T06:08:06.083Z,47.27
2022-10-11T06:10:33.125Z,48.10
2022-10-11T06:12:59.807Z,48.30
2022-10-11T06:15:26.522Z,48.24
2022-10-11T06:17:53.343Z,48.07
2022-10-11T06:20:19.901Z,47.78
2022-10-11T06:22:46.419Z,48.02
2022-10-11T06:25:12.999Z,48.35
2022-10-11T06:27:39.490Z,48.24
2022-10-11T06:30:07.335Z,48.38
2022-10-11T06:32:33.944Z,48.42
2022-10-11T06:35:00.479Z,48.33
2022-10-11T06:37:26.985Z,48.52
2022-10-11T06:39:53.459Z,48.34
2022-10-11T06:42:19.927Z,48.72
2022-10-11T06:44:46.414Z,48.92
2022-10-11T06:47:13.457Z,48.90
2022-10-11T06:49:39.934Z,48.80
2022-10-11T06:52:06.418Z,48.92
2022-10-11T06:54:32.928Z,49.12
2022-10-11T06:56:59.427Z,49.08
2022-10-11T06:59:25.944Z,48.73
2022-10-11T07:01:52.414Z,48.93
2022-10-11T07:04:18.946Z,48.53
2022-10-11T07:06:45.515Z,48.55
2022-10-11T07:09:12.175Z,47.67
2022-10-11T07:11:38.844Z,47.44
2022-10-11T07:14:07.918Z,47.22
2022-10-11T07:16:36.461Z,47.35
2022-10-11T07:19:05.057Z,47.39
2022-10-11T07:21:33.845Z,47.37
2022-10-11T07:24:01.355Z,47.32
2022-10-11T07:26:38.691Z,47.26
2022-10-11T07:29:07.236Z,47.16
2022-10-11T07:31:33.752Z,46.98
2022-10-11T07:34:00.286Z,47.12
2022-10-11T07:36:26.901Z,47.17
2022-10-11T07:38:53.548Z,46.97
2022-10-11T07:41:20.859Z,46.96
2022-10-11T07:43:49.567Z,47.03
2022-10-11T07:46:17.289Z,46.99
2022-10-11T07:48:44.311Z,46.94
2022-10-11T07:51:13.687Z,46.83
2022-10-11T07:53:45.528Z,46.73
2022-10-11T07:56:14.500Z,46.70
2022-10-11T07:58:42.651Z,46.49
2022-10-11T08:01:10.871Z,46.64
2022-10-11T08:03:38.577Z,46.35
2022-10-11T08:06:09.463Z,46.17
2022-10-11T08:08:36.803Z,46.24
2022-10-11T08:11:04.271Z,46.01
2022-10-11T08:13:30.900Z,45.89
2022-10-11T08:15:57.851Z,46.20
2022-10-11T08:18:24.499Z,45.91
2022-10-11T08:20:53.578Z,45.94
2022-10-11T08:23:20.617Z,45.72
2022-10-11T08:25:48.569Z,45.73
2022-10-11T08:28:17.538Z,45.58
2022-10-11T08:30:51.256Z,45.07
2022-10-11T08:33:19.031Z,45.31
2022-10-11T08:35:45.785Z,45.29
2022-10-11T08:38:12.512Z,45.32
2022-10-11T08:40:46.277Z,44.95
2022-10-11T08:43:28.023Z,44.82
2022-10-11T08:45:57.938Z,44.83
2022-10-11T08:48:46.306Z,44.58
2022-10-11T08:51:25.277Z,44.67
2022-10-11T08:54:07.603Z,44.93
2022-10-11T08:56:38.766Z,44.88
2022-10-11T08:59:11.299Z,45.08
2022-10-11T09:01:46.562Z,44.80
2022-10-11T09:04:18.076Z,44.83
2022-10-11T09:06:55.433Z,44.59
2022-10-11T09:09:51.060Z,44.65
2022-10-11T09:12:54.477Z,44.29
2022-10-11T09:16:00.248Z,44.53
2022-10-11T09:18:35.483Z,44.89
2022-10-11T09:21:32.182Z,44.93
2022-10-11T09:24:04.785Z,45.04
2022-10-11T09:26:47.412Z,45.49
2022-10-11T09:29:21.470Z,45.38
2022-10-11T09:31:52.505Z,45.71
2022-10-11T09:34:21.352Z,45.94
2022-10-11T09:37:03.592Z,45.52
2022-10-11T09:39:33.371Z,45.84
2022-10-11T09:42:07.777Z,45.90
2022-10-11T09:44:37.442Z,46.10
2022-10-11T09:47:04.990Z,46.16
2022-10-11T09:49:40.847Z,46.06
2022-10-11T09:52:16.074Z,45.99
2022-10-11T09:54:57.995Z,46.01
2022-10-11T09:57:26.423Z,46.31
2022-10-11T10:00:06.395Z,46.17
2022-10-11T10:03:04.049Z,45.92
2022-10-11T10:05:32.877Z,46.16
2022-10-11T10:08:08.937Z,46.20
2022-10-11T10:10:38.739Z,46.20
2022-10-11T10:13:16.858Z,46.22
2022-10-11T10:15:47.053Z,46.15
2022-10-11T10:18:23.666Z,46.17
2022-10-11T10:20:59.468Z,46.25
2022-10-11T10:23:31.256Z,46.49
2022-10-11T10:26:27.481Z,46.74
2022-10-11T10:29:08.954Z,46.32
2022-10-11T10:32:12.419Z,46.42
2022-10-11T10:34:36.829Z,46.66
2022-10-11T10:37:15.623Z,46.54
2022-10-11T10:39:49.699Z,46.87
2022-10-11T10:42:20.082Z,46.81
2022-10-11T10:44:56.983Z,47.22
2022-10-11T10:47:41.685Z,47.32
2022-10-11T10:50:48.565Z,47.41
2022-10-11T10:53:42.091Z,47.37
2022-10-11T10:56:48.327Z,47.45
2022-10-11T10:59:21.214Z,47.31
2022-10-11T11:02:35.425Z,47.48
2022-10-11T11:05:18.087Z,47.58
2022-10-11T11:07:56.235Z,47.88
2022-10-11T11:10:35.074Z,47.72
2022-10-11T11:13:04.297Z,48.00
2022-10-11T11:15:52.651Z,47.94
2022-10-11T11:18:29.644Z,48.05
2022-10-11T11:21:27.535Z,47.93
2022-10-11T11:24:11.710Z,48.04
2022-10-11T11:26:46.858Z,48.07
2022-10-11T11:29:50.749Z,48.16
2022-10-11T11:32:46.034Z,48.17
2022-10-11T11:35:24.910Z,48.27
2022-10-11T11:38:01.316Z,48.28
2022-10-11T11:40:39.702Z,48.31
2022-10-11T11:43:23.130Z,48.54
2022-10-11T11:45:58.328Z,48.29
2022-10-11T11:48:26.729Z,48.14
2022-10-11T11:51:01.900Z,48.09
2022-10-11T11:53:40.936Z,48.26
2022-10-11T11:56:25.245Z,48.36
2022-10-11T11:59:03.079Z,48.27
2022-10-11T12:01:52.746Z,48.57
2022-10-11T12:04:28.127Z,48.50
2022-10-11T12:07:18.569Z,48.55
2022-10-11T12:09:52.820Z,48.51
2022-10-11T12:12:37.565Z,48.47
2022-10-11T12:15:21.153Z,48.42
2022-10-11T12:17:57.054Z,48.62
2022-10-11T12:20:49.503Z,48.30
2022-10-11T12:23:20.087Z,48.49
2022-10-11T12:26:15.379Z,48.65
2022-10-11T12:28:42.211Z,48.51
2022-10-11T12:31:30.853Z,48.73
2022-10-11T12:34:16.433Z,48.98
2022-10-11T12:36:47.133Z,48.63
2022-10-11T12:39:19.708Z,48.88
2022-10-11T12:41:49.823Z,48.78
2022-10-11T12:44:19.110Z,48.80
2022-10-11T12:46:53.564Z,48.78
2022-10-11T12:49:31.193Z,48.97
2022-10-11T12:52:01.784Z,48.88
2022-10-11T12:54:37.606Z,48.70
2022-10-11T12:57:46.161Z,48.90
2022-10-11T13:00:29.873Z,48.73
2022-10-11T13:03:27.173Z,48.75
2022-10-11T13:06:01.484Z,48.46
2022-10-11T13:08:32.199Z,48.62
2022-10-11T13:11:03.294Z,48.60
2022-10-11T13:13:41.503Z,48.77
2022-10-11T13:16:20.862Z,48.69
2022-10-11T13:18:49.893Z,48.51
2022-10-11T13:21:27.721Z,48.55
2022-10-11T13:23:57.791Z,48.43
2022-10-11T13:26:26.409Z,48.46
2022-10-11T13:28:53.001Z,48.56
2022-10-11T13:31:19.795Z,48.29
2022-10-11T13:33:46.612Z,48.62
2022-10-11T13:36:17.732Z,48.67
2022-10-11T13:38:53.730Z,48.52
2022-10-11T13:41:23.766Z,48.59
2022-10-11T13:43:50.403Z,48.45
2022-10-11T13:46:23.306Z,48.49
2022-10-11T13:49:05.150Z,48.54
2022-10-11T13:51:37.406Z,48.39
2022-10-11T13:54:13.635Z,48.51
2022-10-11T13:56:51.041Z,48.52
2022-10-11T13:59:23.665Z,48.46
2022-10-11T14:02:01.110Z,48.66
2022-10-11T14:04:29.967Z,48.73
2022-10-11T14:07:02.389Z,48.67
2022-10-11T14:09:39.074Z,48.60
2022-10-11T14:12:28.698Z,48.83
2022-10-11T14:14:55.204Z,48.72
2022-10-11T14:17:40.211Z,48.63
2022-10-11T14:20:13.230Z,48.66
2022-10-11T14:22:39.793Z,48.66
2022-10-11T14:25:06.756Z,48.45
2022-10-11T14:27:33.393Z,48.70
2022-10-11T14:30:24.154Z,48.63
2022-10-11T14:32:49.082Z,48.69
2022-10-11T14:35:24.533Z,48.61
2022-10-11T14:37:51.917Z,48.75
2022-10-11T14:40:24.307Z,48.84
2022-10-11T14:42:51.192Z,48.72
2022-10-11T14:45:18.978Z,48.57
2022-10-11T14:47:45.518Z,48.82
2022-10-11T14:50:42.658Z,49.01
2022-10-11T14:53:10.842Z,48.70
2022-10-11T14:55:39.808Z,48.83
2022-10-11T14:58:07.332Z,48.56
2022-10-11T15:00:35.623Z,48.63
2022-10-11T15:03:03.211Z,48.59
2022-10-11T15:05:33.992Z,48.87
2022-10-11T15:08:01.864Z,48.85
2022-10-11T15:10:31.358Z,48.89
2022-10-11T15:12:57.884Z,48.66
2022-10-11T15:15:28.190Z,48.63
2022-10-11T15:17:56.660Z,48.44
2022-10-11T15:20:36.946Z,48.57
2022-10-11T15:23:05.234Z,48.63
2022-10-11T15:25:32.226Z,48.60
2022-10-11T15:27:58.763Z,48.73
2022-10-11T15:30:29.267Z,48.68
2022-10-11T15:32:55.983Z,48.50
2022-10-11T15:35:23.563Z,48.47
2022-10-11T15:37:58.347Z,48.72
2022-10-11T15:40:32.244Z,48.78
2022-10-11T15:42:58.801Z,48.60
2022-10-11T15:45:26.402Z,48.64
2022-10-11T15:47:52.955Z,48.63
2022-10-11T15:50:37.274Z,48.61
2022-10-11T15:53:05.020Z,48.65
2022-10-11T15:55:32.953Z,48.64
2022-10-11T15:57:59.680Z,48.54
2022-10-11T16:00:27.153Z,48.81
2022-10-11T16:02:54.512Z,48.44
2022-10-11T16:05:23.403Z,48.56
2022-10-11T16:07:50.103Z,48.46
2022-10-11T16:10:16.786Z,48.72
2022-10-11T16:12:43.303Z,48.66
2022-10-11T16:15:11.260Z,48.94
2022-10-11T16:17:38.235Z,48.79
2022-10-11T16:20:06.768Z,49.07
2022-10-11T16:22:34.911Z,49.15
2022-10-11T16:25:02.648Z,49.28
2022-10-11T16:27:30.379Z,49.35
2022-10-11T16:29:57.302Z,49.47
2022-10-11T16:32:24.338Z,49.40
2022-10-11T16:34:51.116Z,49.38
2022-10-11T16:37:17.648Z,49.65
2022-10-11T16:39:44.216Z,49.45
2022-10-11T16:42:10.703Z,49.12
2022-10-11T16:44:38.860Z,49.67
2022-10-11T16:47:06.100Z,49.61
2022-10-11T16:49:32.926Z,49.55
2022-10-11T16:52:02.268Z,49.60
2022-10-11T16:54:30.446Z,49.70
2022-10-11T16:56:58.173Z,49.79
2022-10-11T16:59:24.799Z,49.68
2022-10-11T17:01:51.482Z,50.07
2022-10-11T17:04:18.095Z,49.76
2022-10-11T17:06:44.918Z,49.84
2022-10-11T17:09:11.871Z,49.55
2022-10-11T17:11:38.713Z,49.59
2022-10-11T17:14:06.135Z,49.60
2022-10-11T17:16:33.464Z,49.97
2022-10-11T17:19:00.165Z,49.76
2022-10-11T17:21:27.028Z,49.89
2022-10-11T17:23:53.696Z,49.84
2022-10-11T17:26:25.028Z,49.73
2022-10-11T17:28:55.772Z,49.70
2022-10-11T17:31:22.912Z,49.72
2022-10-11T17:33:50.156Z,49.74
2022-10-11T17:36:23.598Z,49.89
2022-10-11T17:38:51.347Z,49.78
2022-10-11T17:41:18.517Z,49.66
2022-10-11T17:43:45.065Z,49.66
2022-10-11T17:46:14.283Z,49.80
2022-10-11T17:48:40.909Z,49.74
2022-10-11T17:51:14.144Z,49.91
2022-10-11T17:53:41.426Z,49.76
2022-10-11T17:56:12.812Z,49.77
2022-10-11T17:58:39.762Z,49.51
2022-10-11T18:01:09.482Z,49.65
2022-10-11T18:03:36.507Z,49.46
2022-10-11T18:06:05.655Z,49.63
2022-10-11T18:08:40.041Z,49.52
2022-10-11T18:11:15.737Z,49.35
2022-10-11T18:13:46.053Z,49.13
2022-10-11T18:16:15.480Z,49.37
2022-10-11T18:18:42.603Z,49.11
2022-10-11T18:21:09.958Z,49.27
2022-10-11T18:23:38.229Z,49.00
2022-10-11T18:26:09.721Z,49.30
2022-10-11T18:28:36.522Z,49.14
2022-10-11T18:31:12.368Z,49.13
2022-10-11T18:33:39.707Z,49.00
2022-10-11T18:36:07.651Z,49.08
2022-10-11T18:38:34.838Z,48.90
2022-10-11T18:41:09.015Z,49.03
2022-10-11T18:43:35.864Z,48.87
2022-10-11T18:46:07.707Z,49.00
2022-10-11T18:48:34.891Z,49.05
2022-10-11T18:51:06.794Z,49.06
2022-10-11T18:53:34.732Z,48.80
2022-10-11T18:56:03.247Z,49.00
2022-10-11T18:58:31.360Z,48.77
2022-10-11T19:01:11.142Z,48.91
2022-10-11T19:03:38.136Z,48.95
2022-10-11T19:06:07.603Z,48.80
2022-10-11T19:08:35.044Z,48.73
2022-10-11T19:11:06.384Z,49.11
2022-10-11T19:13:33.850Z,48.81
2022-10-11T19:16:11.697Z,48.69
2022-10-11T19:18:43.189Z,48.77
2022-10-11T19:21:13.430Z,48.73
2022-10-11T19:23:45.013Z,48.84
2022-10-11T19:26:17.020Z,48.75
2022-10-11T19:28:44.544Z,48.68
2022-10-11T19:31:16.117Z,48.71
2022-10-11T19:33:45.278Z,48.81
2022-10-11T19:36:14.089Z,48.73
2022-10-11T19:38:44.092Z,48.66
2022-10-11T19:41:10.820Z,48.63
2022-10-11T19:43:37.312Z,48.98
2022-10-11T19:46:06.404Z,48.60
2022-10-11T19:48:35.593Z,48.83
2022-10-11T19:51:03.456Z,48.75
2022-10-11T19:53:29.966Z,48.80
2022-10-11T19:56:00.778Z,48.82
2022-10-11T19:58:27.369Z,48.60
2022-10-11T20:01:01.939Z,48.73
2022-10-11T20:03:29.588Z,48.74
2022-10-11T20:05:59.837Z,48.33
2022-10-11T20:08:27.425Z,48.52
2022-10-11T20:10:55.053Z,48.55
2022-10-11T20:13:21.662Z,48.51
2022-10-11T20:15:48.191Z,48.67
2022-10-11T20:18:14.731Z,48.59
2022-10-11T20:20:54.799Z,48.69
2022-10-11T20:23:26.640Z,48.64
2022-10-11T20:26:08.178Z,48.62
2022-10-11T20:28:36.533Z,48.79
2022-10-11T20:31:05.507Z,48.58
2022-10-11T20:33:32.801Z,48.76
2022-10-11T20:36:05.073Z,48.70
2022-10-11T20:38:33.616Z,48.70
2022-10-11T20:41:00.364Z,48.83
2022-10-11T20:43:26.872Z,48.76
2022-10-11T20:46:03.971Z,48.70
2022-10-11T20:48:31.794Z,48.68
2022-10-11T20:50:58.342Z,48.45
2022-10-11T20:53:25.640Z,48.54
2022-10-11T20:55:52.159Z,48.48
2022-10-11T20:58:19.193Z,48.53
2022-10-11T21:00:46.602Z,48.56
2022-10-11T21:03:16.330Z,48.48
2022-10-11T21:05:43.321Z,48.55
2022-10-11T21:08:10.121Z,48.36
2022-10-11T21:10:37.478Z,48.34
2022-10-11T21:13:04.394Z,48.51
2022-10-11T21:15:32.152Z,48.49
2022-10-11T21:17:58.635Z,48.57
2022-10-11T21:20:25.249Z,48.51
2022-10-11T21:22:51.891Z,48.46
2022-10-11T21:25:18.367Z,48.48
2022-10-11T21:27:44.905Z,48.53
2022-10-11T21:30:11.396Z,48.50
2022-10-11T21:32:38.111Z,48.37
2022-10-11T21:35:04.696Z,48.56
2022-10-11T21:37:31.366Z,48.53
2022-10-11T21:39:58.036Z,48.52
2022-10-11T21:42:29.293Z,48.48
2022-10-11T21:44:56.143Z,48.45
2022-10-11T21:47:22.591Z,48.51
2022-10-11T21:49:49.111Z,48.55
2022-10-11T21:52:15.657Z,48.65
2022-10-11T21:54:42.119Z,48.52
2022-10-11T21:57:08.618Z,48.59
2022-10-11T21:59:35.116Z,48.47
2022-10-11T22:02:02.230Z,48.35
2022-10-11T22:04:28.962Z,48.28
2022-10-11T22:06:55.683Z,48.44
2022-10-11T22:09:22.280Z,48.26
2022-10-11T22:11:48.770Z,48.30
2022-10-11T22:14:16.084Z,48.28
2022-10-11T22:16:42.632Z,48.28
2022-10-11T22:19:09.140Z,48.32
2022-10-11T22:21:35.943Z,48.35
2022-10-11T22:24:02.673Z,48.37
2022-10-11T22:26:31.081Z,48.29
2022-10-11T22:28:58.688Z,48.20
2022-10-11T22:31:25.160Z,48.41
2022-10-11T22:33:55.948Z,48.12
2022-10-11T22:36:24.301Z,48.20
2022-10-11T22:38:51.822Z,48.15
2022-10-11T22:41:18.426Z,48.15
2022-10-11T22:43:45.248Z,48.16
2022-10-11T22:46:11.865Z,48.20
2022-10-11T22:48:38.405Z,48.28
2022-10-11T22:51:05.090Z,48.19
2022-10-11T22:53:31.874Z,48.12
2022-10-11T22:55:58.646Z,48.19
2022-10-11T22:58:25.507Z,48.05
2022-10-11T23:00:52.027Z,48.13
2022-10-11T23:03:19.553Z,48.11
2022-10-11T23:05:57.017Z,48.27
2022-10-11T23:08:24.151Z,47.84
2022-10-11T23:10:50.633Z,48.06
2022-10-11T23:13:17.293Z,48.03
2022-10-11T23:15:44.117Z,47.96
2022-10-11T23:18:10.666Z,48.10
2022-10-11T23:20:40.044Z,47.97
2022-10-11T23:23:07.297Z,47.95
2022-10-11T23:25:33.987Z,47.87
2022-10-11T23:28:01.264Z,47.94
2022-10-11T23:30:28.714Z,47.91
2022-10-11T23:32:55.207Z,47.91
2022-10-11T23:35:21.698Z,47.97
2022-10-11T23:37:48.228Z,47.91
2022-10-11T23:40:15.271Z,47.79
2022-10-11T23:42:41.811Z,47.88
2022-10-11T23:45:09.071Z,47.74
2022-10-11T23:47:35.740Z,47.75
2022-10-11T23:50:02.304Z,47.79
2022-10-11T23:52:28.776Z,47.68
2022-10-11T23:54:56.173Z,47.71
2022-10-11T23:57:22.655Z,47.72
2022-10-11T23:59:49.133Z,47.67
